createdAt,value
2019-06-26T00:01:18.312Z,8.80
2019-06-26T00:03:46.760Z,9.78
2019-06-26T00:06:16.957Z,10.80
2019-06-26T00:08:45.356Z,7.28
2019-06-26T00:11:13.770Z,7.92
2019-06-26T00:13:42.172Z,12.90
2019-06-26T00:16:10.662Z,9.00
2019-06-26T00:18:39.149Z,8.03
2019-06-26T00:21:07.555Z,9.23
2019-06-26T00:23:36.123Z,7.50
2019-06-26T00:26:04.542Z,10.88
2019-06-26T00:28:32.959Z,7.53
2019-06-26T00:31:01.409Z,7.58
2019-06-26T00:33:29.849Z,11.75
2019-06-26T00:36:00.889Z,9.45
2019-06-26T00:38:29.315Z,7.40
2019-06-26T00:40:57.739Z,8.38
2019-06-26T00:43:38.487Z,9.10
2019-06-26T00:45:56.303Z,7.22
2019-06-26T00:48:24.715Z,9.08
2019-06-26T00:50:53.151Z,11.35
2019-06-26T00:53:21.966Z,7.30
2019-06-26T00:55:50.425Z,10.48
2019-06-26T00:58:18.856Z,14.50
2019-06-26T01:00:51.400Z,9.50
2019-06-26T01:03:19.826Z,12.03
2019-06-26T01:05:48.242Z,16.37
2019-06-26T01:08:16.679Z,13.90
2019-06-26T01:10:45.768Z,12.28
2019-06-26T01:13:14.168Z,11.53
2019-06-26T01:15:42.730Z,12.28
2019-06-26T01:18:11.153Z,11.53
2019-06-26T01:20:39.590Z,16.23
2019-06-26T01:23:08.067Z,12.98
2019-06-26T01:25:36.480Z,11.63
2019-06-26T01:28:06.022Z,11.68
2019-06-26T01:30:34.455Z,15.68
2019-06-26T01:33:02.874Z,12.63
2019-06-26T01:35:31.291Z,12.47
2019-06-26T01:37:59.722Z,10.70
2019-06-26T01:40:29.383Z,13.95
2019-06-26T01:42:57.799Z,11.22
2019-06-26T01:45:26.242Z,11.20
2019-06-26T01:47:54.659Z,15.72
2019-06-26T01:50:23.063Z,12.53
2019-06-26T01:52:51.489Z,12.45
2019-06-26T01:55:19.918Z,11.57
2019-06-26T01:57:48.732Z,15.30
2019-06-26T02:00:17.468Z,13.73
2019-06-26T02:02:45.895Z,11.70
2019-06-26T02:05:14.475Z,14.28
2019-06-26T02:07:42.926Z,13.68
2019-06-26T02:10:13.371Z,14.17
2019-06-26T02:12:41.788Z,15.48
2019-06-26T02:15:10.490Z,12.98
2019-06-26T02:17:38.899Z,12.93
2019-06-26T02:20:07.639Z,14.25
2019-06-26T02:22:36.078Z,13.98
2019-06-26T02:25:06.465Z,17.02
2019-06-26T02:27:35.048Z,13.08
2019-06-26T02:30:04.787Z,15.35
2019-06-26T02:32:33.307Z,18.02
2019-06-26T02:35:01.730Z,15.25
2019-06-26T02:37:30.276Z,11.97
2019-06-26T02:39:58.731Z,12.05
2019-06-26T02:42:27.210Z,12.37
2019-06-26T02:44:55.762Z,17.20
2019-06-26T02:47:24.165Z,12.82
2019-06-26T02:49:52.683Z,14.63
2019-06-26T02:52:21.099Z,17.27
2019-06-26T02:54:49.521Z,14.58
2019-06-26T02:57:18.074Z,13.90
2019-06-26T02:59:46.523Z,13.13
2019-06-26T03:02:14.951Z,12.50
2019-06-26T03:04:43.380Z,13.43
2019-06-26T03:07:11.889Z,11.65
2019-06-26T03:09:40.280Z,13.53
2019-06-26T03:12:08.780Z,13.13
2019-06-26T03:14:37.190Z,15.58
2019-06-26T03:17:05.603Z,13.95
2019-06-26T03:19:34.059Z,13.32
2019-06-26T03:22:02.470Z,12.68
2019-06-26T03:24:31.552Z,15.00
2019-06-26T03:27:00.047Z,12.78
2019-06-26T03:29:28.769Z,14.23
2019-06-26T03:31:57.928Z,13.18
2019-06-26T03:34:26.339Z,14.05
2019-06-26T03:36:54.763Z,14.28
2019-06-26T03:39:23.187Z,15.00
2019-06-26T03:41:51.757Z,14.07
2019-06-26T03:44:20.161Z,13.28
2019-06-26T03:46:48.580Z,13.98
2019-06-26T03:49:16.999Z,14.95
2019-06-26T03:51:45.427Z,16.87
2019-06-26T03:54:13.997Z,17.75
2019-06-26T03:56:42.400Z,13.50
2019-06-26T03:59:10.813Z,14.50
2019-06-26T04:01:39.265Z,15.60
2019-06-26T04:04:07.666Z,13.45
2019-06-26T04:06:36.169Z,16.32
2019-06-26T04:09:05.886Z,21.82
2019-06-26T04:11:35.744Z,15.43
2019-06-26T04:14:04.457Z,17.92
2019-06-26T04:16:32.877Z,20.32
2019-06-26T04:19:01.306Z,17.07
2019-06-26T04:21:29.746Z,17.17
2019-06-26T04:23:58.474Z,20.27
2019-06-26T04:26:26.891Z,18.82
2019-06-26T04:28:55.341Z,24.50
2019-06-26T04:31:23.751Z,19.80
2019-06-26T04:33:52.157Z,16.60
2019-06-26T04:36:20.663Z,17.35
2019-06-26T04:38:49.115Z,17.00
2019-06-26T04:41:17.519Z,18.70
2019-06-26T04:43:45.925Z,20.57
2019-06-26T04:46:14.371Z,19.37
2019-06-26T04:48:42.830Z,21.07
2019-06-26T04:51:11.322Z,15.32
2019-06-26T04:53:39.765Z,16.07
2019-06-26T04:56:08.180Z,19.95
2019-06-26T04:58:36.607Z,17.98
2019-06-26T05:01:05.051Z,22.27
2019-06-26T05:03:33.459Z,20.82
2019-06-26T05:06:02.083Z,31.97
2019-06-26T05:08:30.467Z,31.97
2019-06-26T05:10:58.906Z,33.88
2019-06-26T05:13:27.314Z,36.08
2019-06-26T05:15:55.747Z,40.67
2019-06-26T05:18:24.297Z,34.80
2019-06-26T05:20:52.761Z,36.63
2019-06-26T05:23:21.197Z,35.85
2019-06-26T05:25:49.655Z,36.08
2019-06-26T05:28:18.114Z,33.63
2019-06-26T05:30:47.463Z,32.42
2019-06-26T05:33:15.967Z,37.98
2019-06-26T05:35:44.393Z,34.48
2019-06-26T05:38:12.818Z,30.08
2019-06-26T05:40:41.226Z,31.93
2019-06-26T05:43:09.815Z,34.75
2019-06-26T05:45:38.214Z,33.63
2019-06-26T05:48:06.649Z,32.03
2019-06-26T05:50:35.084Z,37.73
2019-06-26T05:53:03.507Z,29.70
2019-06-26T05:55:32.179Z,31.17
2019-06-26T05:58:00.619Z,31.15
2019-06-26T06:00:29.351Z,31.60
2019-06-26T06:02:58.145Z,27.65
2019-06-26T06:05:26.696Z,31.57
2019-06-26T06:07:55.122Z,26.62
2019-06-26T06:10:23.562Z,26.63
2019-06-26T06:12:52.202Z,26.40
2019-06-26T06:15:20.705Z,28.53
2019-06-26T06:17:49.133Z,30.52
2019-06-26T06:20:20.622Z,27.77
2019-06-26T06:22:49.050Z,30.90
2019-06-26T06:25:18.242Z,28.85
2019-06-26T06:27:46.822Z,26.80
2019-06-26T06:30:15.606Z,27.77
2019-06-26T06:32:44.021Z,26.20
2019-06-26T06:35:12.494Z,28.30
2019-06-26T06:37:40.915Z,29.57
2019-06-26T06:40:10.527Z,25.92
2019-06-26T06:42:39.020Z,28.32
2019-06-26T06:45:07.846Z,25.17
2019-06-26T06:47:36.327Z,24.02
2019-06-26T06:50:08.923Z,24.62
2019-06-26T06:52:37.355Z,24.50
2019-06-26T06:55:06.520Z,27.67
2019-06-26T06:57:34.939Z,27.75
2019-06-26T07:00:04.565Z,25.57
2019-06-26T07:02:32.975Z,33.80
2019-06-26T07:05:01.712Z,28.02
2019-06-26T07:07:30.244Z,29.15
2019-06-26T07:09:58.695Z,29.65
2019-06-26T07:12:27.092Z,25.10
2019-06-26T07:14:55.529Z,26.25
2019-06-26T07:17:25.538Z,24.90
2019-06-26T07:19:54.015Z,26.57
2019-06-26T07:22:22.464Z,23.27
2019-06-26T07:24:50.859Z,26.62
2019-06-26T07:27:20.198Z,28.87
2019-06-26T07:29:49.512Z,27.65
2019-06-26T07:32:17.922Z,27.98
2019-06-26T07:34:48.141Z,35.58
2019-06-26T07:37:16.549Z,30.62
2019-06-26T07:39:44.967Z,26.52
2019-06-26T07:42:13.401Z,28.45
2019-06-26T07:44:41.898Z,25.55
2019-06-26T07:47:22.425Z,31.45
2019-06-26T07:49:41.953Z,26.82
2019-06-26T07:52:10.462Z,26.50
2019-06-26T07:54:38.882Z,27.13
2019-06-26T07:57:07.283Z,27.00
2019-06-26T07:59:35.754Z,33.20
2019-06-26T08:02:04.145Z,27.87
2019-06-26T08:04:33.125Z,25.52
2019-06-26T08:07:01.571Z,27.20
2019-06-26T08:09:30.036Z,26.23
2019-06-26T08:11:58.445Z,29.65
2019-06-26T08:14:26.861Z,23.73
2019-06-26T08:16:56.366Z,26.90
2019-06-26T08:19:24.787Z,30.50
2019-06-26T08:21:54.246Z,26.40
2019-06-26T08:24:22.642Z,26.35
2019-06-26T08:26:51.047Z,27.02
2019-06-26T08:29:19.462Z,22.50
2019-06-26T08:31:47.867Z,27.82
2019-06-26T08:34:18.019Z,29.80
2019-06-26T08:36:46.622Z,28.33
2019-06-26T08:39:16.535Z,24.30
2019-06-26T08:41:45.127Z,22.55
2019-06-26T08:44:13.575Z,19.87
2019-06-26T08:46:41.997Z,20.92
2019-06-26T08:49:24.398Z,23.30
2019-06-26T08:51:41.436Z,22.80
2019-06-26T08:54:09.844Z,24.27
2019-06-26T08:56:38.376Z,19.65
2019-06-26T08:59:06.900Z,17.20
2019-06-26T09:01:35.299Z,25.50
2019-06-26T09:04:04.571Z,22.07
2019-06-26T09:06:32.987Z,21.15
2019-06-26T09:09:03.330Z,17.02
2019-06-26T09:11:31.757Z,19.80
2019-06-26T09:14:00.166Z,19.00
2019-06-26T09:16:28.616Z,19.02
2019-06-26T09:18:57.066Z,23.95
2019-06-26T09:21:30.053Z,15.70
2019-06-26T09:23:57.229Z,21.05
2019-06-26T09:26:26.667Z,23.50
2019-06-26T09:28:55.137Z,18.60
2019-06-26T09:31:23.596Z,19.65
2019-06-26T09:33:52.089Z,17.65
2019-06-26T09:36:20.573Z,25.17
2019-06-26T09:38:49.080Z,16.80
2019-06-26T09:41:17.558Z,21.27
2019-06-26T09:43:46.008Z,19.85
2019-06-26T09:46:14.498Z,17.15
2019-06-26T09:48:52.700Z,19.35
2019-06-26T09:51:13.117Z,20.00
2019-06-26T09:53:46.970Z,17.60
2019-06-26T09:56:13.153Z,18.85
2019-06-26T09:58:41.590Z,16.35
2019-06-26T10:01:10.321Z,16.27
2019-06-26T10:03:38.891Z,19.15
2019-06-26T10:06:07.312Z,16.55
2019-06-26T10:08:35.723Z,17.10
2019-06-26T10:11:04.209Z,23.55
2019-06-26T10:13:33.394Z,16.82
2019-06-26T10:16:02.053Z,17.45
2019-06-26T10:18:30.480Z,17.57
2019-06-26T10:20:58.891Z,19.17
2019-06-26T10:23:27.294Z,14.68
2019-06-26T10:25:56.098Z,14.98
2019-06-26T10:28:24.639Z,15.48
2019-06-26T10:30:53.105Z,16.17
2019-06-26T10:33:21.616Z,22.52
2019-06-26T10:35:50.079Z,17.65
2019-06-26T10:38:18.525Z,15.68
2019-06-26T10:40:47.002Z,19.50
2019-06-26T10:43:15.488Z,16.57
2019-06-26T10:45:44.070Z,19.45
2019-06-26T10:48:12.487Z,16.77
2019-06-26T10:50:49.744Z,19.85
2019-06-26T10:53:11.051Z,17.23
2019-06-26T10:55:39.652Z,17.40
2019-06-26T10:58:08.125Z,20.35
2019-06-26T11:00:36.677Z,16.10
2019-06-26T11:03:05.170Z,18.23
2019-06-26T11:05:33.579Z,21.50
2019-06-26T11:08:02.400Z,15.40
2019-06-26T11:10:30.811Z,14.85
2019-06-26T11:12:59.232Z,20.55
2019-06-26T11:15:27.714Z,15.40
2019-06-26T11:17:59.693Z,17.70
2019-06-26T11:20:28.108Z,14.18
2019-06-26T11:22:56.553Z,16.15
2019-06-26T11:25:25.944Z,14.15
2019-06-26T11:27:54.345Z,17.42
2019-06-26T11:30:23.480Z,14.73
2019-06-26T11:32:51.963Z,20.48
2019-06-26T11:35:20.433Z,17.62
2019-06-26T11:37:48.836Z,12.47
2019-06-26T11:40:17.778Z,13.35
2019-06-26T11:42:46.891Z,16.73
2019-06-26T11:45:15.695Z,17.37
2019-06-26T11:47:45.842Z,12.95
2019-06-26T11:50:14.788Z,18.15
2019-06-26T11:52:43.218Z,14.20
2019-06-26T11:55:12.182Z,13.80
2019-06-26T11:57:40.659Z,15.60
2019-06-26T12:00:11.874Z,15.98
2019-06-26T12:02:40.484Z,14.35
2019-06-26T12:05:09.953Z,15.25
2019-06-26T12:07:38.432Z,12.82
2019-06-26T12:10:07.765Z,13.08
2019-06-26T12:12:36.340Z,13.35
2019-06-26T12:15:07.251Z,12.74
2019-06-26T12:17:35.806Z,12.25
2019-06-26T12:20:17.708Z,14.93
2019-06-26T12:22:37.391Z,12.88
2019-06-26T12:25:06.768Z,14.75
2019-06-26T12:27:35.620Z,11.30
2019-06-26T12:30:06.730Z,10.15
2019-06-26T12:32:41.799Z,10.25
2019-06-26T12:35:06.815Z,14.10
2019-06-26T12:37:38.105Z,10.85
2019-06-26T12:40:06.828Z,9.93
2019-06-26T12:42:35.527Z,10.82
2019-06-26T12:45:06.948Z,8.48
2019-06-26T12:47:36.598Z,9.90
2019-06-26T12:50:07.648Z,8.28
2019-06-26T12:52:36.193Z,10.70
2019-06-26T12:55:07.456Z,10.05
2019-06-26T12:57:35.930Z,10.13
2019-06-26T13:00:08.261Z,8.73
2019-06-26T13:02:36.669Z,7.37
2019-06-26T13:05:07.816Z,7.72
2019-06-26T13:07:36.185Z,8.55
2019-06-26T13:10:07.862Z,6.20
2019-06-26T13:12:36.844Z,11.25
2019-06-26T13:15:09.993Z,9.36
2019-06-26T13:17:38.409Z,7.17
2019-06-26T13:20:10.767Z,6.97
2019-06-26T13:22:39.373Z,8.15
2019-06-26T13:25:08.959Z,9.40
2019-06-26T13:27:37.446Z,10.75
2019-06-26T13:30:10.062Z,7.20
2019-06-26T13:32:38.481Z,10.27
2019-06-26T13:35:07.563Z,8.43
2019-06-26T13:37:36.139Z,9.25
2019-06-26T13:40:06.639Z,8.00
2019-06-26T13:42:35.045Z,7.72
2019-06-26T13:45:05.442Z,8.58
2019-06-26T13:47:33.955Z,13.13
2019-06-26T13:50:02.943Z,8.10
2019-06-26T13:52:31.650Z,8.80
2019-06-26T13:55:00.323Z,10.08
2019-06-26T13:57:28.762Z,7.37
2019-06-26T13:59:57.171Z,8.13
2019-06-26T14:02:25.586Z,8.45
2019-06-26T14:04:54.040Z,12.95
2019-06-26T14:07:22.697Z,12.60
2019-06-26T14:09:51.180Z,11.18
2019-06-26T14:12:19.614Z,13.75
2019-06-26T14:14:57.266Z,12.07
2019-06-26T14:17:18.615Z,9.75
2019-06-26T14:19:47.170Z,14.53
2019-06-26T14:22:15.766Z,13.32
2019-06-26T14:24:45.086Z,12.80
2019-06-26T14:27:13.702Z,17.02
2019-06-26T14:29:42.220Z,16.73
2019-06-26T14:32:10.781Z,15.18
2019-06-26T14:34:39.390Z,15.38
2019-06-26T14:37:13.806Z,17.57
2019-06-26T14:39:42.366Z,23.62
2019-06-26T14:42:12.823Z,21.77
2019-06-26T14:44:41.423Z,20.75
2019-06-26T14:47:10.268Z,26.17
2019-06-26T14:49:38.824Z,19.57
2019-06-26T14:52:07.637Z,24.12
2019-06-26T14:54:36.194Z,20.62
2019-06-26T14:57:04.847Z,19.17
2019-06-26T14:59:33.790Z,24.95
2019-06-26T15:02:02.465Z,22.75
2019-06-26T15:04:31.061Z,19.30
2019-06-26T15:06:59.805Z,21.07
2019-06-26T15:09:28.305Z,22.77
2019-06-26T15:11:57.029Z,24.30
2019-06-26T15:14:25.983Z,22.15
2019-06-26T15:16:55.160Z,23.38
2019-06-26T15:19:23.912Z,29.77
2019-06-26T15:21:58.338Z,21.77
2019-06-26T15:24:23.978Z,22.87
2019-06-26T15:26:52.614Z,26.02
2019-06-26T15:29:21.209Z,22.00
2019-06-26T15:31:49.902Z,26.20
2019-06-26T15:34:18.835Z,22.45
2019-06-26T15:36:47.317Z,26.07
2019-06-26T15:39:15.835Z,26.48
2019-06-26T15:41:44.346Z,21.17
2019-06-26T15:44:12.917Z,20.48
2019-06-26T15:46:41.753Z,24.85
2019-06-26T15:49:10.406Z,29.60
2019-06-26T15:51:39.000Z,23.87
2019-06-26T15:54:07.705Z,22.22
2019-06-26T15:56:36.431Z,21.70
2019-06-26T15:59:05.052Z,19.60
2019-06-26T16:01:33.692Z,18.33
2019-06-26T16:04:02.628Z,15.35
2019-06-26T16:06:31.300Z,17.42
2019-06-26T16:09:00.067Z,14.28
2019-06-26T16:11:29.127Z,16.03
2019-06-26T16:13:59.093Z,16.80
2019-06-26T16:16:27.985Z,16.80
2019-06-26T16:19:06.750Z,17.30
2019-06-26T16:21:35.314Z,15.08
2019-06-26T16:24:03.890Z,12.50
2019-06-26T16:26:32.470Z,11.48
2019-06-26T16:29:01.039Z,11.65
2019-06-26T16:31:29.751Z,14.70
2019-06-26T16:33:58.293Z,9.98
2019-06-26T16:36:27.186Z,12.68
2019-06-26T16:38:55.660Z,9.63
2019-06-26T16:41:24.221Z,12.82
2019-06-26T16:43:53.448Z,11.83
2019-06-26T16:46:22.057Z,13.53
2019-06-26T16:48:50.664Z,9.73
2019-06-26T16:51:19.370Z,8.20
2019-06-26T16:53:47.913Z,12.58
2019-06-26T16:56:17.825Z,9.10
2019-06-26T16:58:46.376Z,12.65
2019-06-26T17:01:15.487Z,10.50
2019-06-26T17:03:43.965Z,13.03
2019-06-26T17:06:12.555Z,9.08
2019-06-26T17:08:41.004Z,10.40
2019-06-26T17:11:09.491Z,10.13
2019-06-26T17:13:38.262Z,11.25
2019-06-26T17:16:06.718Z,10.85
2019-06-26T17:18:35.247Z,9.23
2019-06-26T17:21:03.691Z,13.97
2019-06-26T17:23:32.146Z,15.60
2019-06-26T17:26:01.538Z,12.13
2019-06-26T17:28:29.987Z,11.15
2019-06-26T17:30:58.833Z,17.48
2019-06-26T17:33:27.372Z,14.05
2019-06-26T17:35:55.912Z,13.78
2019-06-26T17:38:24.406Z,13.05
2019-06-26T17:40:52.873Z,13.22
2019-06-26T17:43:21.573Z,12.88
2019-06-26T17:45:50.055Z,12.90
2019-06-26T17:48:18.596Z,13.43
2019-06-26T17:50:47.081Z,13.20
2019-06-26T17:53:21.548Z,12.75
2019-06-26T17:55:45.699Z,15.77
2019-06-26T17:58:14.110Z,14.65
2019-06-26T18:00:42.696Z,16.45
2019-06-26T18:03:11.095Z,14.33
2019-06-26T18:05:39.741Z,18.60
2019-06-26T18:08:08.297Z,17.30
2019-06-26T18:10:36.737Z,13.95
2019-06-26T18:13:05.715Z,14.58
2019-06-26T18:15:34.154Z,15.20
2019-06-26T18:18:02.570Z,16.23
2019-06-26T18:20:31.005Z,16.77
2019-06-26T18:23:06.960Z,16.42
2019-06-26T18:25:29.588Z,20.08
2019-06-26T18:27:58.008Z,17.70
2019-06-26T18:30:26.514Z,14.60
2019-06-26T18:32:54.993Z,18.73
2019-06-26T18:35:23.404Z,13.93
2019-06-26T18:37:51.810Z,14.43
2019-06-26T18:40:20.316Z,19.40
2019-06-26T18:42:50.056Z,12.88
2019-06-26T18:45:18.671Z,15.70
2019-06-26T18:47:47.116Z,14.58
2019-06-26T18:50:15.668Z,14.00
2019-06-26T18:52:44.072Z,16.00
2019-06-26T18:55:13.883Z,18.90
2019-06-26T18:57:42.359Z,18.82
2019-06-26T19:00:11.161Z,18.73
2019-06-26T19:02:39.608Z,18.95
2019-06-26T19:05:09.873Z,17.27
2019-06-26T19:07:38.274Z,14.30
2019-06-26T19:10:09.817Z,14.05
2019-06-26T19:12:38.293Z,16.23
2019-06-26T19:15:07.344Z,14.25
2019-06-26T19:17:36.419Z,16.27
2019-06-26T19:20:09.229Z,14.22
2019-06-26T19:22:38.979Z,16.87
2019-06-26T19:25:07.999Z,14.68
2019-06-26T19:27:36.427Z,19.05
2019-06-26T19:30:09.130Z,13.00
2019-06-26T19:32:37.758Z,12.10
2019-06-26T19:35:18.215Z,10.82
2019-06-26T19:37:37.284Z,12.30
2019-06-26T19:40:08.702Z,12.75
2019-06-26T19:42:36.341Z,11.95
2019-06-26T19:45:09.259Z,12.44
2019-06-26T19:47:37.694Z,12.60
2019-06-26T19:50:09.777Z,11.40
2019-06-26T19:52:38.231Z,14.58
2019-06-26T19:55:08.122Z,12.43
2019-06-26T19:57:36.713Z,14.40
2019-06-26T20:00:08.123Z,18.86
2019-06-26T20:02:36.582Z,17.80
2019-06-26T20:05:07.164Z,15.45
2019-06-26T20:07:35.685Z,14.93
2019-06-26T20:10:05.930Z,13.80
2019-06-26T20:12:34.341Z,21.02
2019-06-26T20:15:03.202Z,15.08
2019-06-26T20:17:31.890Z,18.17
2019-06-26T20:20:00.374Z,13.98
2019-06-26T20:22:28.787Z,13.95
2019-06-26T20:24:57.543Z,13.43
2019-06-26T20:27:26.028Z,13.05
2019-06-26T20:29:54.688Z,17.27
2019-06-26T20:32:23.130Z,12.85
2019-06-26T20:34:51.637Z,11.28
2019-06-26T20:37:20.036Z,13.50
2019-06-26T20:39:48.473Z,12.10
2019-06-26T20:42:17.206Z,14.85
2019-06-26T20:44:45.638Z,16.25
2019-06-26T20:47:14.073Z,11.48
2019-06-26T20:49:52.647Z,16.20
2019-06-26T20:52:12.623Z,15.45
2019-06-26T20:54:41.059Z,14.83
2019-06-26T20:57:09.480Z,12.47
2019-06-26T20:59:38.098Z,13.58
2019-06-26T21:02:06.520Z,15.00
2019-06-26T21:04:34.945Z,12.75
2019-06-26T21:07:03.350Z,11.88
2019-06-26T21:09:31.777Z,11.78
2019-06-26T21:12:00.328Z,14.43
2019-06-26T21:14:28.741Z,15.40
2019-06-26T21:16:57.154Z,15.48
2019-06-26T21:19:25.590Z,12.37
2019-06-26T21:21:54.025Z,13.10
2019-06-26T21:24:24.175Z,14.40
2019-06-26T21:26:52.610Z,16.50
2019-06-26T21:29:21.051Z,15.32
2019-06-26T21:31:49.475Z,19.00
2019-06-26T21:34:17.914Z,13.75
2019-06-26T21:36:46.323Z,14.18
2019-06-26T21:39:14.728Z,12.60
2019-06-26T21:41:43.407Z,13.40
2019-06-26T21:44:11.806Z,13.43
2019-06-26T21:46:40.262Z,17.75
2019-06-26T21:49:08.692Z,14.13
2019-06-26T21:51:37.133Z,16.02
2019-06-26T21:54:05.941Z,12.03
2019-06-26T21:56:34.511Z,12.88
2019-06-26T21:59:08.106Z,16.50
2019-06-26T22:01:36.853Z,14.15
2019-06-26T22:04:05.568Z,14.18
2019-06-26T22:06:34.451Z,13.05
2019-06-26T22:09:04.473Z,11.55
2019-06-26T22:11:33.004Z,15.72
2019-06-26T22:14:01.428Z,13.90
2019-06-26T22:16:30.144Z,16.37
2019-06-26T22:18:58.562Z,14.05
2019-06-26T22:21:27.015Z,13.40
2019-06-26T22:23:55.451Z,18.48
2019-06-26T22:26:23.933Z,16.02
2019-06-26T22:28:52.714Z,12.58
2019-06-26T22:31:21.313Z,16.25
2019-06-26T22:33:49.947Z,17.62
2019-06-26T22:36:18.511Z,12.37
2019-06-26T22:38:47.025Z,13.68
2019-06-26T22:41:17.031Z,13.50
2019-06-26T22:43:45.549Z,14.00
2019-06-26T22:46:15.044Z,12.75
2019-06-26T22:48:43.551Z,13.62
2019-06-26T22:51:12.075Z,11.00
2019-06-26T22:53:40.491Z,13.10
2019-06-26T22:56:09.033Z,10.70
2019-06-26T22:58:39.123Z,14.28
2019-06-26T23:01:07.671Z,12.78
2019-06-26T23:03:36.241Z,11.60
2019-06-26T23:06:04.839Z,12.50
2019-06-26T23:08:33.466Z,10.72
2019-06-26T23:11:01.931Z,10.50
2019-06-26T23:13:30.408Z,10.45
2019-06-26T23:15:59.547Z,13.10
2019-06-26T23:18:34.980Z,11.35
2019-06-26T23:21:04.125Z,9.50
2019-06-26T23:23:32.593Z,11.28
2019-06-26T23:26:01.118Z,10.85
2019-06-26T23:28:29.608Z,9.85
2019-06-26T23:30:58.047Z,12.75
2019-06-26T23:33:26.671Z,17.42
2019-06-26T23:35:55.153Z,12.90
2019-06-26T23:38:23.809Z,11.00
2019-06-26T23:40:52.305Z,11.40
2019-06-26T23:43:20.786Z,12.05
2019-06-26T23:45:49.417Z,11.63
2019-06-26T23:48:18.002Z,10.48
2019-06-26T23:50:46.922Z,10.43
2019-06-26T23:53:15.446Z,12.03
2019-06-26T23:55:44.020Z,9.85
2019-06-26T23:58:12.695Z,11.73
